sensor_id;sensor_type;location;lat;lon;timestamp;temperature;humidity
20366;DHT22;10341;49.894;8.822;2022-07-21T00:03:14;20.40;99.90
20366;DHT22;10341;49.894;8.822;2022-07-21T00:08:33;20.30;99.90
20366;DHT22;10341;49.894;8.822;2022-07-21T00:13:53;20.20;99.90
20366;DHT22;10341;49.894;8.822;2022-07-21T00:19:13;20.20;99.90
20366;DHT22;10341;49.894;8.822;2022-07-21T00:24:32;20.20;99.90
20366;DHT22;10341;49.894;8.822;2022-07-21T00:29:51;20.10;99.90
20366;DHT22;10341;49.894;8.822;2022-07-21T00:35:11;20.00;99.90
20366;DHT22;10341;49.894;8.822;2022-07-21T00:40:31;20.00;99.90
20366;DHT22;10341;49.894;8.822;2022-07-21T00:45:53;20.00;99.90
20366;DHT22;10341;49.894;8.822;2022-07-21T00:51:12;20.00;99.90
20366;DHT22;10341;49.894;8.822;2022-07-21T00:56:32;20.00;99.90
20366;DHT22;10341;49.894;8.822;2022-07-21T01:01:51;20.00;99.90
20366;DHT22;10341;49.894;8.822;2022-07-21T01:07:10;20.00;99.90
20366;DHT22;10341;49.894;8.822;2022-07-21T01:12:29;20.00;99.90
20366;DHT22;10341;49.894;8.822;2022-07-21T01:17:49;19.90;99.90
20366;DHT22;10341;49.894;8.822;2022-07-21T01:23:08;19.80;99.90
20366;DHT22;10341;49.894;8.822;2022-07-21T01:28:28;19.80;99.90
20366;DHT22;10341;49.894;8.822;2022-07-21T01:33:47;19.80;99.90
20366;DHT22;10341;49.894;8.822;2022-07-21T01:39:07;19.80;99.90
20366;DHT22;10341;49.894;8.822;2022-07-21T01:44:45;19.80;99.90
20366;DHT22;10341;49.894;8.822;2022-07-21T01:50:04;19.90;99.90
20366;DHT22;10341;49.894;8.822;2022-07-21T01:55:25;19.90;99.90
20366;DHT22;10341;49.894;8.822;2022-07-21T02:00:44;19.90;99.90
20366;DHT22;10341;49.894;8.822;2022-07-21T02:06:04;19.80;99.90
20366;DHT22;10341;49.894;8.822;2022-07-21T02:11:24;19.80;99.90
20366;DHT22;10341;49.894;8.822;2022-07-21T02:16:43;19.90;99.90
20366;DHT22;10341;49.894;8.822;2022-07-21T02:22:03;19.90;99.90
20366;DHT22;10341;49.894;8.822;2022-07-21T02:27:22;19.80;99.90
20366;DHT22;10341;49.894;8.822;2022-07-21T02:32:41;19.80;99.90
20366;DHT22;10341;49.894;8.822;2022-07-21T02:38:01;19.80;99.90
20366;DHT22;10341;49.894;8.822;2022-07-21T02:43:20;19.80;99.90
20366;DHT22;10341;49.894;8.822;2022-07-21T02:48:40;19.80;99.90
20366;DHT22;10341;49.894;8.822;2022-07-21T02:53:59;19.70;99.90
20366;DHT22;10341;49.894;8.822;2022-07-21T02:59:18;19.80;99.90
20366;DHT22;10341;49.894;8.822;2022-07-21T03:04:37;19.70;99.90
20366;DHT22;10341;49.894;8.822;2022-07-21T03:09:56;19.70;99.90
20366;DHT22;10341;49.894;8.822;2022-07-21T03:15:15;19.70;99.90
20366;DHT22;10341;49.894;8.822;2022-07-21T03:20:38;19.70;99.90
20366;DHT22;10341;49.894;8.822;2022-07-21T03:25:57;19.70;99.90
20366;DHT22;10341;49.894;8.822;2022-07-21T03:31:17;19.70;99.90
20366;DHT22;10341;49.894;8.822;2022-07-21T03:36:36;19.70;99.90
20366;DHT22;10341;49.894;8.822;2022-07-21T03:41:55;19.70;99.90
20366;DHT22;10341;49.894;8.822;2022-07-21T03:47:15;19.60;99.90
20366;DHT22;10341;49.894;8.822;2022-07-21T03:52:34;19.50;99.90
20366;DHT22;10341;49.894;8.822;2022-07-21T03:57:56;19.40;99.90
20366;DHT22;10341;49.894;8.822;2022-07-21T04:03:15;19.30;99.90
20366;DHT22;10341;49.894;8.822;2022-07-21T04:08:34;19.20;99.90
20366;DHT22;10341;49.894;8.822;2022-07-21T04:13:53;19.20;99.90
20366;DHT22;10341;49.894;8.822;2022-07-21T04:19:12;19.20;99.90
20366;DHT22;10341;49.894;8.822;2022-07-21T04:24:31;19.20;99.90
20366;DHT22;10341;49.894;8.822;2022-07-21T04:29:51;19.20;99.90
20366;DHT22;10341;49.894;8.822;2022-07-21T04:35:10;19.10;99.90
20366;DHT22;10341;49.894;8.822;2022-07-21T04:40:29;19.20;99.90
20366;DHT22;10341;49.894;8.822;2022-07-21T04:45:49;19.20;99.90
20366;DHT22;10341;49.894;8.822;2022-07-21T04:51:07;19.20;99.90
20366;DHT22;10341;49.894;8.822;2022-07-21T04:56:27;19.20;99.90
20366;DHT22;10341;49.894;8.822;2022-07-21T05:01:46;19.30;99.90
20366;DHT22;10341;49.894;8.822;2022-07-21T05:07:05;19.40;99.90
20366;DHT22;10341;49.894;8.822;2022-07-21T05:12:25;19.50;99.90
20366;DHT22;10341;49.894;8.822;2022-07-21T05:17:45;19.60;99.90
20366;DHT22;10341;49.894;8.822;2022-07-21T05:23:04;19.70;99.90
20366;DHT22;10341;49.894;8.822;2022-07-21T05:28:23;19.90;99.90
20366;DHT22;10341;49.894;8.822;2022-07-21T05:33:42;20.10;99.90
20366;DHT22;10341;49.894;8.822;2022-07-21T05:39:02;20.20;99.90
20366;DHT22;10341;49.894;8.822;2022-07-21T05:44:21;20.20;99.90
20366;DHT22;10341;49.894;8.822;2022-07-21T05:49:41;20.40;99.90
20366;DHT22;10341;49.894;8.822;2022-07-21T05:55:00;20.50;99.90
20366;DHT22;10341;49.894;8.822;2022-07-21T06:00:20;20.60;99.90
20366;DHT22;10341;49.894;8.822;2022-07-21T06:05:39;20.80;99.90
20366;DHT22;10341;49.894;8.822;2022-07-21T06:10:59;21.00;99.90
20366;DHT22;10341;49.894;8.822;2022-07-21T06:16:18;21.30;99.90
20366;DHT22;10341;49.894;8.822;2022-07-21T06:21:37;21.30;99.90
20366;DHT22;10341;49.894;8.822;2022-07-21T06:26:57;21.30;99.90
20366;DHT22;10341;49.894;8.822;2022-07-21T06:32:16;21.40;99.90
20366;DHT22;10341;49.894;8.822;2022-07-21T06:37:35;21.60;99.90
20366;DHT22;10341;49.894;8.822;2022-07-21T06:42:54;21.50;99.90
20366;DHT22;10341;49.894;8.822;2022-07-21T06:48:13;21.70;99.90
20366;DHT22;10341;49.894;8.822;2022-07-21T06:53:33;22.00;99.90
20366;DHT22;10341;49.894;8.822;2022-07-21T06:58:52;22.10;99.90
20366;DHT22;10341;49.894;8.822;2022-07-21T07:04:11;21.80;99.90
20366;DHT22;10341;49.894;8.822;2022-07-21T07:09:30;21.80;99.90
20366;DHT22;10341;49.894;8.822;2022-07-21T07:14:50;22.10;99.90
20366;DHT22;10341;49.894;8.822;2022-07-21T07:20:09;22.20;99.90
20366;DHT22;10341;49.894;8.822;2022-07-21T07:25:29;22.70;99.90
20366;DHT22;10341;49.894;8.822;2022-07-21T07:30:49;23.00;99.90
20366;DHT22;10341;49.894;8.822;2022-07-21T07:36:08;23.00;99.90
20366;DHT22;10341;49.894;8.822;2022-07-21T07:41:30;22.90;99.90
20366;DHT22;10341;49.894;8.822;2022-07-21T07:46:50;23.20;99.90
20366;DHT22;10341;49.894;8.822;2022-07-21T07:52:10;23.40;99.90
20366;DHT22;10341;49.894;8.822;2022-07-21T07:57:29;23.40;99.90
20366;DHT22;10341;49.894;8.822;2022-07-21T08:02:48;23.50;99.90
20366;DHT22;10341;49.894;8.822;2022-07-21T08:08:08;23.50;99.90
20366;DHT22;10341;49.894;8.822;2022-07-21T08:13:27;24.10;99.90
20366;DHT22;10341;49.894;8.822;2022-07-21T08:18:46;25.70;99.90
20366;DHT22;10341;49.894;8.822;2022-07-21T08:24:05;25.40;99.90
20366;DHT22;10341;49.894;8.822;2022-07-21T08:29:25;24.90;99.90
20366;DHT22;10341;49.894;8.822;2022-07-21T08:34:45;24.30;99.90
20366;DHT22;10341;49.894;8.822;2022-07-21T08:40:05;23.80;99.90
20366;DHT22;10341;49.894;8.822;2022-07-21T08:45:25;23.60;99.90
20366;DHT22;10341;49.894;8.822;2022-07-21T08:50:46;23.20;99.90
20366;DHT22;10341;49.894;8.822;2022-07-21T08:56:06;23.60;99.90
20366;DHT22;10341;49.894;8.822;2022-07-21T09:01:25;23.80;99.90
20366;DHT22;10341;49.894;8.822;2022-07-21T09:06:57;23.30;99.90
20366;DHT22;10341;49.894;8.822;2022-07-21T09:12:16;22.20;99.90
20366;DHT22;10341;49.894;8.822;2022-07-21T09:17:35;21.90;99.90
20366;DHT22;10341;49.894;8.822;2022-07-21T09:23:27;24.10;99.90
20366;DHT22;10341;49.894;8.822;2022-07-21T09:28:46;24.50;99.90
20366;DHT22;10341;49.894;8.822;2022-07-21T09:34:13;24.00;99.90
20366;DHT22;10341;49.894;8.822;2022-07-21T09:39:54;23.50;99.90
20366;DHT22;10341;49.894;8.822;2022-07-21T09:45:15;23.20;99.90
20366;DHT22;10341;49.894;8.822;2022-07-21T09:50:36;23.00;99.90
20366;DHT22;10341;49.894;8.822;2022-07-21T09:55:56;23.30;99.90
20366;DHT22;10341;49.894;8.822;2022-07-21T10:01:16;23.10;99.90
20366;DHT22;10341;49.894;8.822;2022-07-21T10:06:37;23.70;99.90
20366;DHT22;10341;49.894;8.822;2022-07-21T10:11:56;24.20;99.90
20366;DHT22;10341;49.894;8.822;2022-07-21T10:17:18;24.60;99.90
20366;DHT22;10341;49.894;8.822;2022-07-21T10:28:28;26.70;99.90
20366;DHT22;10341;49.894;8.822;2022-07-21T10:49:54;26.10;99.90
20366;DHT22;10341;49.894;8.822;2022-07-21T10:55:14;25.30;99.90
20366;DHT22;10341;49.894;8.822;2022-07-21T11:00:48;25.10;99.90
20366;DHT22;10341;49.894;8.822;2022-07-21T11:06:12;26.80;99.90
20366;DHT22;10341;49.894;8.822;2022-07-21T11:11:35;27.70;99.90
20366;DHT22;10341;49.894;8.822;2022-07-21T11:22:21;26.50;99.90
20366;DHT22;10341;49.894;8.822;2022-07-21T11:27:40;26.00;99.90
20366;DHT22;10341;49.894;8.822;2022-07-21T11:32:59;28.40;99.90
20366;DHT22;10341;49.894;8.822;2022-07-21T11:38:19;30.50;95.80
20366;DHT22;10341;49.894;8.822;2022-07-21T11:43:43;31.30;94.40
20366;DHT22;10341;49.894;8.822;2022-07-21T11:49:04;31.90;93.90
20366;DHT22;10341;49.894;8.822;2022-07-21T11:59:49;31.50;90.70
20366;DHT22;10341;49.894;8.822;2022-07-21T12:05:09;31.90;90.40
20366;DHT22;10341;49.894;8.822;2022-07-21T12:10:29;31.80;89.00
20366;DHT22;10341;49.894;8.822;2022-07-21T12:15:49;30.80;90.90
20366;DHT22;10341;49.894;8.822;2022-07-21T12:21:08;30.60;92.30
20366;DHT22;10341;49.894;8.822;2022-07-21T12:26:27;29.90;90.80
20366;DHT22;10341;49.894;8.822;2022-07-21T12:31:47;29.20;91.30
20366;DHT22;10341;49.894;8.822;2022-07-21T12:37:06;28.60;93.50
20366;DHT22;10341;49.894;8.822;2022-07-21T12:42:33;29.50;92.70
20366;DHT22;10341;49.894;8.822;2022-07-21T12:48:12;30.10;90.70
20366;DHT22;10341;49.894;8.822;2022-07-21T12:53:34;31.00;89.80
20366;DHT22;10341;49.894;8.822;2022-07-21T12:58:56;30.80;90.80
20366;DHT22;10341;49.894;8.822;2022-07-21T13:04:15;29.40;91.10
20366;DHT22;10341;49.894;8.822;2022-07-21T13:09:34;28.80;92.00
20366;DHT22;10341;49.894;8.822;2022-07-21T13:14:53;28.40;92.50
20366;DHT22;10341;49.894;8.822;2022-07-21T13:20:13;29.40;91.30
20366;DHT22;10341;49.894;8.822;2022-07-21T13:25:32;29.30;91.80
20366;DHT22;10341;49.894;8.822;2022-07-21T13:30:52;28.70;91.30
20366;DHT22;10341;49.894;8.822;2022-07-21T13:36:10;28.80;91.40
20366;DHT22;10341;49.894;8.822;2022-07-21T13:41:30;28.80;92.50
20366;DHT22;10341;49.894;8.822;2022-07-21T13:46:50;28.70;92.80
20366;DHT22;10341;49.894;8.822;2022-07-21T13:52:09;29.40;91.60
20366;DHT22;10341;49.894;8.822;2022-07-21T13:57:29;29.90;90.70
20366;DHT22;10341;49.894;8.822;2022-07-21T14:02:48;29.30;90.90
20366;DHT22;10341;49.894;8.822;2022-07-21T14:08:07;28.70;91.90
20366;DHT22;10341;49.894;8.822;2022-07-21T14:13:26;28.10;92.20
20366;DHT22;10341;49.894;8.822;2022-07-21T14:18:46;28.00;93.10
20366;DHT22;10341;49.894;8.822;2022-07-21T14:24:05;27.50;92.80
20366;DHT22;10341;49.894;8.822;2022-07-21T14:29:44;27.10;92.00
20366;DHT22;10341;49.894;8.822;2022-07-21T14:35:03;27.60;93.10
20366;DHT22;10341;49.894;8.822;2022-07-21T14:40:23;28.30;92.10
20366;DHT22;10341;49.894;8.822;2022-07-21T14:45:42;28.00;92.80
20366;DHT22;10341;49.894;8.822;2022-07-21T14:51:01;27.80;92.30
20366;DHT22;10341;49.894;8.822;2022-07-21T14:56:21;27.80;92.70
20366;DHT22;10341;49.894;8.822;2022-07-21T15:01:40;27.60;92.70
20366;DHT22;10341;49.894;8.822;2022-07-21T15:06:59;27.80;93.00
20366;DHT22;10341;49.894;8.822;2022-07-21T15:12:18;29.10;91.80
20366;DHT22;10341;49.894;8.822;2022-07-21T15:17:37;30.00;90.10
20366;DHT22;10341;49.894;8.822;2022-07-21T15:22:58;30.30;89.60
20366;DHT22;10341;49.894;8.822;2022-07-21T15:28:17;29.60;87.90
20366;DHT22;10341;49.894;8.822;2022-07-21T15:33:36;28.70;90.60
20366;DHT22;10341;49.894;8.822;2022-07-21T15:38:56;28.20;90.20
20366;DHT22;10341;49.894;8.822;2022-07-21T15:44:18;28.30;91.50
20366;DHT22;10341;49.894;8.822;2022-07-21T15:49:37;28.20;91.20
20366;DHT22;10341;49.894;8.822;2022-07-21T15:54:56;27.90;91.40
20366;DHT22;10341;49.894;8.822;2022-07-21T16:00:15;27.70;91.90
20366;DHT22;10341;49.894;8.822;2022-07-21T16:05:35;27.60;91.90
20366;DHT22;10341;49.894;8.822;2022-07-21T16:10:54;27.50;92.90
20366;DHT22;10341;49.894;8.822;2022-07-21T16:16:13;27.60;92.90
20366;DHT22;10341;49.894;8.822;2022-07-21T16:21:32;27.50;92.80
20366;DHT22;10341;49.894;8.822;2022-07-21T16:26:52;27.20;92.50
20366;DHT22;10341;49.894;8.822;2022-07-21T16:32:11;27.20;93.10
20366;DHT22;10341;49.894;8.822;2022-07-21T16:37:30;27.20;93.40
20366;DHT22;10341;49.894;8.822;2022-07-21T16:42:50;27.30;94.00
20366;DHT22;10341;49.894;8.822;2022-07-21T16:48:10;27.40;93.50
20366;DHT22;10341;49.894;8.822;2022-07-21T16:53:30;27.30;93.50
20366;DHT22;10341;49.894;8.822;2022-07-21T16:58:50;27.10;93.70
20366;DHT22;10341;49.894;8.822;2022-07-21T17:04:09;27.00;94.30
20366;DHT22;10341;49.894;8.822;2022-07-21T17:09:28;26.80;93.70
20366;DHT22;10341;49.894;8.822;2022-07-21T17:14:47;26.70;93.70
20366;DHT22;10341;49.894;8.822;2022-07-21T17:20:07;26.60;94.30
20366;DHT22;10341;49.894;8.822;2022-07-21T17:25:27;26.60;94.60
20366;DHT22;10341;49.894;8.822;2022-07-21T17:30:46;26.60;94.70
20366;DHT22;10341;49.894;8.822;2022-07-21T17:36:06;26.60;94.60
20366;DHT22;10341;49.894;8.822;2022-07-21T17:41:26;26.60;94.60
20366;DHT22;10341;49.894;8.822;2022-07-21T17:46:45;26.50;94.60
20366;DHT22;10341;49.894;8.822;2022-07-21T17:52:04;26.30;95.00
20366;DHT22;10341;49.894;8.822;2022-07-21T17:57:23;26.10;95.30
20366;DHT22;10341;49.894;8.822;2022-07-21T18:03:01;25.90;96.10
20366;DHT22;10341;49.894;8.822;2022-07-21T18:08:21;25.70;97.00
20366;DHT22;10341;49.894;8.822;2022-07-21T18:13:41;25.60;98.00
20366;DHT22;10341;49.894;8.822;2022-07-21T18:19:00;25.40;99.60
20366;DHT22;10341;49.894;8.822;2022-07-21T18:24:19;25.30;99.80
20366;DHT22;10341;49.894;8.822;2022-07-21T18:29:38;25.20;98.40
20366;DHT22;10341;49.894;8.822;2022-07-21T18:34:58;25.30;98.40
20366;DHT22;10341;49.894;8.822;2022-07-21T18:40:17;25.20;98.40
20366;DHT22;10341;49.894;8.822;2022-07-21T18:45:36;25.10;98.60
20366;DHT22;10341;49.894;8.822;2022-07-21T18:50:56;24.90;98.90
20366;DHT22;10341;49.894;8.822;2022-07-21T18:56:16;24.70;99.60
20366;DHT22;10341;49.894;8.822;2022-07-21T19:01:35;24.50;99.90
20366;DHT22;10341;49.894;8.822;2022-07-21T19:06:55;24.20;99.90
20366;DHT22;10341;49.894;8.822;2022-07-21T19:12:14;24.00;99.90
20366;DHT22;10341;49.894;8.822;2022-07-21T19:17:33;23.80;99.90
20366;DHT22;10341;49.894;8.822;2022-07-21T19:22:52;23.60;99.90
20366;DHT22;10341;49.894;8.822;2022-07-21T19:28:12;23.30;99.90
20366;DHT22;10341;49.894;8.822;2022-07-21T19:33:31;23.00;99.90
20366;DHT22;10341;49.894;8.822;2022-07-21T19:38:50;22.80;99.90
20366;DHT22;10341;49.894;8.822;2022-07-21T19:44:09;22.60;99.90
20366;DHT22;10341;49.894;8.822;2022-07-21T19:49:28;22.30;99.90
20366;DHT22;10341;49.894;8.822;2022-07-21T19:54:47;22.20;99.90
20366;DHT22;10341;49.894;8.822;2022-07-21T20:00:10;22.00;99.90
20366;DHT22;10341;49.894;8.822;2022-07-21T20:05:31;22.00;99.90
20366;DHT22;10341;49.894;8.822;2022-07-21T20:10:50;22.00;99.90
20366;DHT22;10341;49.894;8.822;2022-07-21T20:16:09;22.00;99.90
20366;DHT22;10341;49.894;8.822;2022-07-21T20:21:29;22.00;99.90
20366;DHT22;10341;49.894;8.822;2022-07-21T20:26:48;22.00;99.90
20366;DHT22;10341;49.894;8.822;2022-07-21T20:32:08;21.80;99.90
20366;DHT22;10341;49.894;8.822;2022-07-21T20:37:28;21.60;99.90
20366;DHT22;10341;49.894;8.822;2022-07-21T20:42:47;21.40;99.90
20366;DHT22;10341;49.894;8.822;2022-07-21T20:48:06;21.30;99.90
20366;DHT22;10341;49.894;8.822;2022-07-21T20:53:26;21.20;99.90
20366;DHT22;10341;49.894;8.822;2022-07-21T20:58:45;21.20;99.90
20366;DHT22;10341;49.894;8.822;2022-07-21T21:04:04;21.10;99.90
20366;DHT22;10341;49.894;8.822;2022-07-21T21:09:24;21.10;99.90
20366;DHT22;10341;49.894;8.822;2022-07-21T21:14:43;21.20;99.90
20366;DHT22;10341;49.894;8.822;2022-07-21T21:20:03;21.20;99.90
20366;DHT22;10341;49.894;8.822;2022-07-21T21:25:22;21.20;99.90
20366;DHT22;10341;49.894;8.822;2022-07-21T21:30:41;21.10;99.90
20366;DHT22;10341;49.894;8.822;2022-07-21T21:36:01;21.10;99.90
20366;DHT22;10341;49.894;8.822;2022-07-21T21:41:20;20.90;99.90
20366;DHT22;10341;49.894;8.822;2022-07-21T21:46:39;20.80;99.90
20366;DHT22;10341;49.894;8.822;2022-07-21T21:51:59;20.60;99.90
20366;DHT22;10341;49.894;8.822;2022-07-21T21:57:18;20.40;99.90
20366;DHT22;10341;49.894;8.822;2022-07-21T22:02:37;20.30;99.90
20366;DHT22;10341;49.894;8.822;2022-07-21T22:07:56;20.20;99.90
20366;DHT22;10341;49.894;8.822;2022-07-21T22:13:15;20.00;99.90
20366;DHT22;10341;49.894;8.822;2022-07-21T22:18:35;19.90;99.90
20366;DHT22;10341;49.894;8.822;2022-07-21T22:23:55;19.70;99.90
20366;DHT22;10341;49.894;8.822;2022-07-21T22:29:15;19.60;99.90
20366;DHT22;10341;49.894;8.822;2022-07-21T22:34:35;19.50;99.90
20366;DHT22;10341;49.894;8.822;2022-07-21T22:39:54;19.30;99.90
20366;DHT22;10341;49.894;8.822;2022-07-21T22:45:13;19.20;99.90
20366;DHT22;10341;49.894;8.822;2022-07-21T22:50:33;19.20;99.90
20366;DHT22;10341;49.894;8.822;2022-07-21T22:55:53;19.10;99.90
20366;DHT22;10341;49.894;8.822;2022-07-21T23:01:12;19.10;99.90
20366;DHT22;10341;49.894;8.822;2022-07-21T23:06:31;19.00;99.90
20366;DHT22;10341;49.894;8.822;2022-07-21T23:11:50;18.90;99.90
20366;DHT22;10341;49.894;8.822;2022-07-21T23:17:09;18.70;99.90
20366;DHT22;10341;49.894;8.822;2022-07-21T23:22:28;18.70;99.90
20366;DHT22;10341;49.894;8.822;2022-07-21T23:27:47;18.60;99.90
20366;DHT22;10341;49.894;8.822;2022-07-21T23:33:07;18.50;99.90
20366;DHT22;10341;49.894;8.822;2022-07-21T23:38:26;18.30;99.90
20366;DHT22;10341;49.894;8.822;2022-07-21T23:43:45;18.10;99.90
20366;DHT22;10341;49.894;8.822;2022-07-21T23:49:04;17.90;99.90
20366;DHT22;10341;49.894;8.822;2022-07-21T23:54:23;17.90;99.90
20366;DHT22;10341;49.894;8.822;2022-07-21T23:59:42;17.80;99.90
